KSVE/SVE METAR and TAF weather

Enter ICAO airport designator
Station Type Date Time Source
KSVE METAR 2020/07/08 21:55 UTC NOAA

KSVE 082155Z AUTO 17007G21KT 10SM CLR 29/00 A2997 RMK AO2


Station Type Date Time Source
KSVE Decoded METAR 2020/07/08 21:55 UTC NOAA

Susanville Municipal, CA, United States (KSVE) 40-23N 120-34W
Jul 08, 2020 - 05:55 PM EDT / 2020.07.08 2155 UTC
Wind: from the S (170 degrees) at 8 MPH (7 KT) gusting to 24 MPH (21 KT):0
Visibility: 10 mile(s):0
Sky conditions: clear
Temperature: 84 F (29 C)
Dew Point: 32 F (0 C)
Relative Humidity: 15%
Pressure (altimeter): 29.97 in. Hg (1014 hPa)
ob: KSVE 082155Z AUTO 17007G21KT 10SM CLR 29/00 A2997 RMK AO2
cycle: 22

Station Type Date Time Source
KSVE TAF UTC NOAA

Error!

Example: see airport list